Time;durP1;ratioP1;P1;durP2;ratioP2;P2;SDS_P1;SDS_P2;PMS_P1;PMS_P2;Temp;Humidity;BMP_temperature;BMP_pressure;BME280_temperature;BME280_humidity;BME280_pressure;Samples;Min_cycle;Max_cycle;Signal;HPM_P1;HPM_P2
2022/03/06 00:01:18;;;;;;;21.40;11.88;;;3.40;65.60;;;;;;5095987;28;20111;-37
2022/03/06 00:03:47;;;;;;;22.40;11.75;;;3.30;65.70;;;;;;5095913;28;20024;-37
2022/03/06 00:06:13;;;;;;;23.20;12.75;;;3.30;65.90;;;;;;5095968;28;20028;-37
2022/03/06 00:08:40;;;;;;;22.20;12.57;;;3.30;66.00;;;;;;5095962;28;20024;-38
2022/03/06 00:11:06;;;;;;;22.23;11.68;;;3.20;66.20;;;;;;5095685;28;20545;-36
2022/03/06 00:13:33;;;;;;;22.05;11.18;;;3.20;66.30;;;;;;5077806;28;20028;-38
2022/03/06 00:16:00;;;;;;;21.08;11.90;;;3.10;66.40;;;;;;5095697;28;20070;-39
2022/03/06 00:18:26;;;;;;;24.83;12.18;;;3.10;66.60;;;;;;5095700;28;20538;-37
2022/03/06 00:20:53;;;;;;;23.25;12.05;;;3.00;66.70;;;;;;5095542;28;20059;-37
2022/03/06 00:23:19;;;;;;;22.00;12.23;;;3.00;66.90;;;;;;5077425;28;20031;-38
2022/03/06 00:25:45;;;;;;;21.08;11.65;;;2.90;67.00;;;;;;5095738;28;20491;-37
2022/03/06 00:28:11;;;;;;;22.00;12.02;;;2.90;67.30;;;;;;5095491;28;20024;-38
2022/03/06 00:30:37;;;;;;;20.42;11.35;;;2.80;67.40;;;;;;5095681;28;20491;-39
2022/03/06 00:33:05;;;;;;;23.15;12.52;;;2.80;67.60;;;;;;5095354;28;20028;-38
2022/03/06 00:35:31;;;;;;;23.40;13.60;;;2.80;67.80;;;;;;5095422;28;20518;-39
2022/03/06 00:37:57;;;;;;;24.70;13.20;;;2.70;68.00;;;;;;5095219;28;20055;-38
2022/03/06 00:40:23;;;;;;;23.48;12.45;;;2.70;68.30;;;;;;5095434;28;20392;-35
2022/03/06 00:42:49;;;;;;;21.23;11.55;;;2.60;68.40;;;;;;5095180;28;20529;-37
2022/03/06 00:45:14;;;;;;;22.20;12.13;;;2.60;68.40;;;;;;5095119;28;20028;-38
2022/03/06 00:47:40;;;;;;;22.60;12.55;;;2.50;68.40;;;;;;5095239;28;20028;-37
2022/03/06 00:50:06;;;;;;;19.52;11.20;;;2.60;68.60;;;;;;5095271;28;20095;-38
2022/03/06 00:52:31;;;;;;;19.90;11.38;;;2.50;68.50;;;;;;5095010;28;20476;-38
2022/03/06 00:54:57;;;;;;;19.83;11.02;;;2.50;68.50;;;;;;5094898;28;20514;-37
2022/03/06 00:57:23;;;;;;;21.42;12.57;;;2.60;68.50;;;;;;5094320;28;20024;-38
2022/03/06 00:59:48;;;;;;;22.67;11.77;;;2.50;68.60;;;;;;5076564;28;20066;-37
2022/03/06 01:02:14;;;;;;;20.67;11.82;;;2.50;68.60;;;;;;5094826;28;20408;-38
2022/03/06 01:04:40;;;;;;;21.33;11.20;;;2.50;68.80;;;;;;5094706;28;20075;-35
2022/03/06 01:07:05;;;;;;;20.05;11.00;;;2.50;68.70;;;;;;5094662;28;20023;-37
2022/03/06 01:09:31;;;;;;;21.85;11.63;;;2.50;68.70;;;;;;5094706;28;20065;-37
2022/03/06 01:11:57;;;;;;;19.00;11.27;;;2.50;68.90;;;;;;5094630;28;20039;-38
2022/03/06 01:14:22;;;;;;;16.50;9.60;;;2.50;68.90;;;;;;5094514;28;20032;-36
2022/03/06 01:16:48;;;;;;;17.55;10.40;;;2.50;68.80;;;;;;5094673;28;20036;-37
2022/03/06 01:19:13;;;;;;;19.50;11.10;;;2.50;68.80;;;;;;5094660;28;20028;-38
2022/03/06 01:21:39;;;;;;;18.42;10.82;;;2.50;68.90;;;;;;5094400;28;20020;-36
2022/03/06 01:24:05;;;;;;;19.67;10.70;;;2.50;68.90;;;;;;5094414;28;20021;-38
2022/03/06 01:26:30;;;;;;;18.88;11.40;;;2.40;68.90;;;;;;5094570;28;20031;-38
2022/03/06 01:28:56;;;;;;;19.40;10.95;;;2.40;69.00;;;;;;5094261;28;20463;-36
2022/03/06 01:31:21;;;;;;;20.33;11.68;;;2.40;69.00;;;;;;5094667;28;20024;-37
2022/03/06 01:33:47;;;;;;;21.85;11.90;;;2.40;69.00;;;;;;5094050;28;20056;-37
2022/03/06 01:36:13;;;;;;;20.40;11.63;;;2.30;69.10;;;;;;5094037;28;20035;-36
2022/03/06 01:38:38;;;;;;;19.70;11.45;;;2.30;69.30;;;;;;5094135;28;20034;-38
2022/03/06 01:41:04;;;;;;;22.00;11.63;;;2.30;69.80;;;;;;5093932;28;20380;-39
2022/03/06 01:43:30;;;;;;;21.00;11.20;;;2.20;69.60;;;;;;5094084;28;20020;-37
2022/03/06 01:45:55;;;;;;;18.65;11.18;;;2.20;69.70;;;;;;5094260;28;20024;-37
2022/03/06 01:48:21;;;;;;;18.00;10.57;;;2.20;69.70;;;;;;5093884;28;20028;-37
2022/03/06 01:50:47;;;;;;;19.88;11.88;;;2.20;69.70;;;;;;5093867;28;20110;-38
2022/03/06 01:53:12;;;;;;;20.02;10.68;;;2.20;69.70;;;;;;5093786;28;20102;-38
2022/03/06 01:55:39;;;;;;;19.70;10.70;;;2.10;69.70;;;;;;5093588;28;20431;-37
2022/03/06 01:58:07;;;;;;;16.05;10.25;;;2.20;69.80;;;;;;5094085;28;20059;-37
2022/03/06 02:00:37;;;;;;;20.35;11.02;;;2.10;69.70;;;;;;5093734;28;20056;-37
2022/03/06 02:03:05;;;;;;;17.88;10.40;;;2.10;69.90;;;;;;5093949;28;20039;-37
2022/03/06 02:05:30;;;;;;;17.58;9.80;;;2.10;70.00;;;;;;5093539;28;20039;-37
2022/03/06 02:07:56;;;;;;;16.45;10.30;;;2.00;69.90;;;;;;5074616;28;20017;-39
2022/03/06 02:10:22;;;;;;;18.67;10.63;;;2.00;70.00;;;;;;5075304;28;20020;-37
2022/03/06 02:12:48;;;;;;;16.60;9.48;;;2.00;70.20;;;;;;5093308;28;20020;-38
2022/03/06 02:15:16;;;;;;;19.40;10.60;;;2.00;70.10;;;;;;5093306;28;20409;-38
2022/03/06 02:17:41;;;;;;;20.67;11.13;;;2.00;70.10;;;;;;5093264;28;20065;-37
2022/03/06 02:20:19;;;;;;;20.83;11.85;;;2.00;70.30;;;;;;5093215;28;20031;-39
2022/03/06 02:22:47;;;;;;;20.08;11.05;;;1.90;70.30;;;;;;5074974;28;20132;-37
2022/03/06 02:25:18;;;;;;;19.23;11.48;;;1.90;70.40;;;;;;5093151;28;20440;-38
2022/03/06 02:27:45;;;;;;;18.42;9.90;;;1.90;70.50;;;;;;5093197;28;20148;-38
2022/03/06 02:30:17;;;;;;;18.60;10.23;;;1.80;70.50;;;;;;5093123;28;20027;-38
2022/03/06 02:32:47;;;;;;;18.70;11.30;;;1.80;70.50;;;;;;5093037;28;20041;-36
2022/03/06 02:35:14;;;;;;;19.95;11.65;;;1.80;70.50;;;;;;5093398;28;20020;-38
2022/03/06 02:37:39;;;;;;;17.02;10.73;;;1.80;70.60;;;;;;5093018;28;20400;-37
2022/03/06 02:40:07;;;;;;;18.52;10.57;;;1.70;70.70;;;;;;5092984;28;20020;-37
2022/03/06 02:42:37;;;;;;;17.85;9.82;;;1.70;70.60;;;;;;5092893;28;20023;-41
2022/03/06 02:45:24;;;;;;;17.83;10.35;;;1.70;70.70;;;;;;5093083;28;20023;-37
2022/03/06 02:47:51;;;;;;;16.80;9.95;;;1.70;70.70;;;;;;5093155;28;20016;-37
2022/03/06 02:50:22;;;;;;;19.00;10.77;;;1.70;70.70;;;;;;5074869;28;20062;-39
2022/03/06 02:52:48;;;;;;;18.70;10.55;;;1.70;70.90;;;;;;5093054;28;20024;-37
2022/03/06 02:55:15;;;;;;;14.68;9.65;;;1.70;71.00;;;;;;5092751;28;20044;-37
2022/03/06 02:57:41;;;;;;;18.85;11.05;;;1.60;71.00;;;;;;5074824;28;20036;-38
2022/03/06 03:00:11;;;;;;;19.05;10.63;;;1.60;71.50;;;;;;5092795;28;20480;-37
2022/03/06 03:02:37;;;;;;;17.38;11.07;;;1.50;70.90;;;;;;5093130;28;20028;-37
2022/03/06 03:05:05;;;;;;;19.45;11.23;;;1.50;71.00;;;;;;5092969;28;20447;-38
2022/03/06 03:07:30;;;;;;;16.10;10.05;;;1.50;71.10;;;;;;5092963;28;20024;-37
2022/03/06 03:09:56;;;;;;;19.73;10.73;;;1.50;71.10;;;;;;5092911;28;20024;-37
2022/03/06 03:12:22;;;;;;;17.58;9.98;;;1.50;71.20;;;;;;5092629;28;20024;-38
2022/03/06 03:14:47;;;;;;;16.42;10.10;;;1.50;71.10;;;;;;5092585;28;20055;-39
2022/03/06 03:17:13;;;;;;;18.73;10.15;;;1.50;71.30;;;;;;5092823;28;20055;-38
2022/03/06 03:19:38;;;;;;;17.65;10.90;;;1.50;71.30;;;;;;5094264;28;20153;-42
2022/03/06 03:22:04;;;;;;;18.17;10.93;;;1.40;71.50;;;;;;5096842;28;20031;-38
2022/03/06 03:24:30;;;;;;;17.92;11.25;;;1.40;71.40;;;;;;5096629;28;20106;-37
2022/03/06 03:26:56;;;;;;;20.85;11.25;;;1.40;71.50;;;;;;5096701;28;20031;-36
2022/03/06 03:29:21;;;;;;;20.48;11.45;;;1.40;71.50;;;;;;5096566;28;20027;-37
2022/03/06 03:31:47;;;;;;;17.00;10.07;;;1.40;71.60;;;;;;5096468;28;20052;-37
2022/03/06 03:34:12;;;;;;;19.35;10.80;;;1.30;71.50;;;;;;5096755;28;20074;-38
2022/03/06 03:36:39;;;;;;;18.10;10.95;;;1.30;71.50;;;;;;5096813;28;20035;-37
2022/03/06 03:39:05;;;;;;;19.33;10.70;;;1.30;71.60;;;;;;5078332;28;20099;-37
2022/03/06 03:41:31;;;;;;;20.05;11.38;;;1.20;71.60;;;;;;5096271;28;20551;-36
2022/03/06 03:43:57;;;;;;;15.73;9.73;;;1.20;71.70;;;;;;5096322;28;20020;-37
2022/03/06 03:46:23;;;;;;;16.10;9.90;;;1.20;71.70;;;;;;5096229;28;20020;-37
2022/03/06 03:48:48;;;;;;;13.95;9.23;;;1.20;71.70;;;;;;5095517;28;20089;-37
2022/03/06 03:51:14;;;;;;;14.93;9.43;;;1.20;71.70;;;;;;5096256;28;20063;-38
2022/03/06 03:53:40;;;;;;;16.48;10.38;;;1.20;71.70;;;;;;5096298;28;20486;-37
2022/03/06 03:56:06;;;;;;;16.92;10.55;;;1.20;71.80;;;;;;5095923;28;20114;-37
2022/03/06 03:58:32;;;;;;;17.17;9.82;;;1.20;71.80;;;;;;5095951;28;20077;-37
2022/03/06 04:00:58;;;;;;;14.70;9.43;;;1.20;71.80;;;;;;5095887;28;20148;-44
2022/03/06 04:03:24;;;;;;;14.40;8.93;;;1.20;71.80;;;;;;5096015;28;20424;-38
2022/03/06 04:05:50;;;;;;;15.68;9.27;;;1.20;71.90;;;;;;5096096;28;20681;-37
2022/03/06 04:08:16;;;;;;;14.32;9.07;;;1.10;71.80;;;;;;5077618;28;20063;-37
2022/03/06 04:10:42;;;;;;;16.52;9.18;;;1.10;71.80;;;;;;5095741;28;20060;-36
2022/03/06 04:13:07;;;;;;;16.90;9.32;;;1.10;71.80;;;;;;5095681;28;20135;-38
2022/03/06 04:15:33;;;;;;;13.82;8.98;;;1.20;71.80;;;;;;5095753;28;20081;-36
2022/03/06 04:17:59;;;;;;;14.93;9.13;;;1.10;71.80;;;;;;5096135;28;20028;-37
2022/03/06 04:20:24;;;;;;;13.70;8.48;;;1.10;71.80;;;;;;5077756;28;20028;-36
2022/03/06 04:22:50;;;;;;;15.40;10.00;;;1.10;71.80;;;;;;5095556;28;20496;-38
2022/03/06 04:25:15;;;;;;;18.48;10.15;;;1.10;71.90;;;;;;5095535;28;20020;-38
2022/03/06 04:27:41;;;;;;;16.40;9.68;;;1.10;71.90;;;;;;5095420;28;20480;-38
2022/03/06 04:30:08;;;;;;;17.02;11.10;;;1.10;72.00;;;;;;5095194;28;20028;-43
2022/03/06 04:32:33;;;;;;;15.60;10.13;;;1.00;72.10;;;;;;5094556;28;20029;-36
2022/03/06 04:34:59;;;;;;;17.13;10.18;;;1.00;72.10;;;;;;5095489;28;20077;-38
2022/03/06 04:37:25;;;;;;;16.98;10.15;;;0.90;72.80;;;;;;5095189;28;20024;-37
2022/03/06 04:39:50;;;;;;;16.25;9.30;;;1.00;72.40;;;;;;5095472;28;20024;-37
2022/03/06 04:42:16;;;;;;;14.93;9.07;;;0.90;72.30;;;;;;5095133;28;20028;-37
2022/03/06 04:44:42;;;;;;;18.10;9.75;;;0.90;72.40;;;;;;5095123;28;20480;-37
2022/03/06 04:47:08;;;;;;;14.68;8.18;;;0.90;72.40;;;;;;5095098;28;20044;-39
2022/03/06 04:49:33;;;;;;;14.80;9.13;;;0.90;72.40;;;;;;5076764;28;20021;-38
2022/03/06 04:51:59;;;;;;;15.07;9.98;;;0.90;72.40;;;;;;5095015;28;20024;-38
2022/03/06 04:54:25;;;;;;;17.70;10.77;;;0.90;72.70;;;;;;5076738;28;20068;-37
2022/03/06 04:56:51;;;;;;;17.50;10.43;;;0.90;72.70;;;;;;5094837;28;20038;-37
2022/03/06 04:59:17;;;;;;;16.40;10.07;;;0.80;72.60;;;;;;5094904;28;20040;-37
2022/03/06 05:01:42;;;;;;;17.42;9.85;;;0.80;72.70;;;;;;5094984;28;20047;-37
2022/03/06 05:04:08;;;;;;;20.25;10.63;;;0.80;72.80;;;;;;5095028;28;20032;-38
2022/03/06 05:06:34;;;;;;;16.25;9.15;;;0.80;72.80;;;;;;5095034;28;20036;-36
2022/03/06 05:09:00;;;;;;;14.95;9.40;;;0.80;73.00;;;;;;5095001;28;20039;-38
2022/03/06 05:11:26;;;;;;;16.40;9.93;;;0.80;73.00;;;;;;5094920;28;20031;-36
2022/03/06 05:13:52;;;;;;;17.02;10.25;;;0.80;73.00;;;;;;5077220;28;20089;-37
2022/03/06 05:16:18;;;;;;;16.52;9.57;;;0.70;73.20;;;;;;5094753;28;20407;-40
2022/03/06 05:18:43;;;;;;;15.07;9.45;;;0.70;73.10;;;;;;5094640;28;20028;-38
2022/03/06 05:21:09;;;;;;;17.38;10.18;;;0.70;73.10;;;;;;5094541;28;20036;-37
2022/03/06 05:23:35;;;;;;;15.90;10.07;;;0.70;73.10;;;;;;5094593;28;20364;-38
2022/03/06 05:26:01;;;;;;;17.45;10.30;;;0.70;73.10;;;;;;5076547;28;20027;-38
2022/03/06 05:28:27;;;;;;;14.50;9.48;;;0.70;73.20;;;;;;5094794;28;20020;-38
2022/03/06 05:30:53;;;;;;;16.17;10.07;;;0.70;73.10;;;;;;5094119;28;20025;-38
2022/03/06 05:33:19;;;;;;;14.93;9.60;;;0.70;73.10;;;;;;5094382;28;20075;-38
2022/03/06 05:35:48;;;;;;;14.90;8.80;;;0.80;73.10;;;;;;5094528;28;20501;-38
2022/03/06 05:38:14;;;;;;;13.85;9.23;;;0.80;73.10;;;;;;5094334;28;20043;-38
2022/03/06 05:40:40;;;;;;;14.05;9.13;;;0.80;73.00;;;;;;5094036;28;20371;-38
2022/03/06 05:43:05;;;;;;;16.50;10.20;;;0.80;73.00;;;;;;5094154;28;20031;-38
2022/03/06 05:45:31;;;;;;;15.65;9.30;;;0.80;73.00;;;;;;5094066;28;20056;-37
2022/03/06 05:47:58;;;;;;;13.82;9.13;;;0.80;73.00;;;;;;5094079;28;20051;-38
2022/03/06 05:50:24;;;;;;;15.00;9.40;;;0.80;73.00;;;;;;5094293;28;20036;-39
2022/03/06 05:52:50;;;;;;;12.50;8.63;;;0.80;73.00;;;;;;5094009;28;20029;-38
2022/03/06 05:55:16;;;;;;;14.48;8.93;;;0.80;73.00;;;;;;5093939;28;20043;-38
2022/03/06 05:57:41;;;;;;;14.35;8.93;;;0.80;73.10;;;;;;5094334;28;20077;-39
2022/03/06 06:00:08;;;;;;;17.10;10.40;;;0.80;73.10;;;;;;5094270;28;20097;-39
2022/03/06 06:02:40;;;;;;;15.55;9.35;;;0.80;73.10;;;;;;5093899;28;20028;-38
2022/03/06 06:05:07;;;;;;;15.65;9.25;;;0.80;73.10;;;;;;5093644;28;20059;-38
2022/03/06 06:07:33;;;;;;;17.35;9.77;;;0.80;73.10;;;;;;5093687;28;20033;-36
2022/03/06 06:09:58;;;;;;;16.63;10.18;;;0.80;73.10;;;;;;5075409;28;20031;-38
2022/03/06 06:12:24;;;;;;;15.65;9.85;;;0.80;73.20;;;;;;5093543;28;20123;-38
2022/03/06 06:14:51;;;;;;;20.58;11.05;;;0.80;73.40;;;;;;5093531;28;20063;-38
2022/03/06 06:17:16;;;;;;;18.20;9.77;;;0.80;73.40;;;;;;5093667;28;20028;-38
2022/03/06 06:19:42;;;;;;;16.75;11.00;;;0.80;73.50;;;;;;5093305;28;20193;-39
2022/03/06 06:22:08;;;;;;;18.05;10.63;;;0.70;73.60;;;;;;5093561;28;20035;-38
2022/03/06 06:24:33;;;;;;;18.40;11.65;;;0.70;74.00;;;;;;5093479;28;20468;-37
2022/03/06 06:26:59;;;;;;;18.85;13.05;;;0.70;74.00;;;;;;5093252;28;20055;-38
2022/03/06 06:29:25;;;;;;;19.90;12.60;;;0.60;74.00;;;;;;5093306;28;20028;-38
2022/03/06 06:31:52;;;;;;;19.23;11.80;;;0.60;74.30;;;;;;5074826;28;20038;-38
2022/03/06 06:34:18;;;;;;;18.20;11.95;;;0.50;74.40;;;;;;5093164;28;20032;-38
2022/03/06 06:36:44;;;;;;;19.90;11.80;;;0.50;74.70;;;;;;5075024;28;20070;-38
2022/03/06 06:39:10;;;;;;;17.15;11.38;;;0.50;74.90;;;;;;5093215;28;20032;-39
2022/03/06 06:41:38;;;;;;;18.90;11.60;;;0.50;74.90;;;;;;5092855;28;20060;-37
2022/03/06 06:44:04;;;;;;;17.33;10.88;;;0.50;75.10;;;;;;5092942;28;20483;-39
2022/03/06 06:46:29;;;;;;;16.90;11.02;;;0.40;75.20;;;;;;5093019;28;20020;-38
2022/03/06 06:48:55;;;;;;;17.90;10.82;;;0.40;75.30;;;;;;5093072;28;20337;-37
2022/03/06 06:51:21;;;;;;;20.50;11.07;;;0.40;75.90;;;;;;5092734;28;20044;-37
2022/03/06 06:53:46;;;;;;;18.17;11.93;;;0.40;75.90;;;;;;5092663;28;20072;-37
2022/03/06 06:56:12;;;;;;;20.45;11.60;;;0.40;75.90;;;;;;5092827;28;20097;-38
2022/03/06 06:58:37;;;;;;;17.73;11.27;;;0.40;76.00;;;;;;5092916;28;20032;-37
2022/03/06 07:01:03;;;;;;;15.38;10.27;;;0.40;76.10;;;;;;5092809;28;20089;-38
2022/03/06 07:03:29;;;;;;;15.85;10.18;;;0.40;75.90;;;;;;5092994;28;20499;-36
2022/03/06 07:05:56;;;;;;;17.20;10.68;;;0.50;76.00;;;;;;5092823;28;20028;-38
2022/03/06 07:08:22;;;;;;;20.90;11.50;;;0.50;76.40;;;;;;5092818;28;20028;-38
2022/03/06 07:10:48;;;;;;;16.15;10.93;;;0.50;76.60;;;;;;5092859;28;20028;-37
2022/03/06 07:13:13;;;;;;;16.70;10.73;;;0.60;76.40;;;;;;5093035;28;20028;-38
2022/03/06 07:15:39;;;;;;;15.48;10.23;;;0.60;76.80;;;;;;5092584;28;20032;-38
2022/03/06 07:18:05;;;;;;;17.60;10.48;;;0.60;76.70;;;;;;5074928;28;20388;-39
2022/03/06 07:20:31;;;;;;;14.35;10.15;;;0.60;76.70;;;;;;5092578;28;20016;-38
2022/03/06 07:22:57;;;;;;;16.63;9.55;;;0.70;76.70;;;;;;5092550;28;20457;-38
2022/03/06 07:25:23;;;;;;;14.75;9.45;;;0.70;76.60;;;;;;5092513;28;20032;-38
2022/03/06 07:27:48;;;;;;;13.55;9.60;;;0.80;76.90;;;;;;5092758;28;20036;-37
2022/03/06 07:30:14;;;;;;;15.75;9.55;;;0.80;76.60;;;;;;5092713;28;20096;-37
2022/03/06 07:32:49;;;;;;;16.38;11.02;;;0.90;76.60;;;;;;5092393;28;20388;-39
2022/03/06 07:35:16;;;;;;;15.52;9.80;;;0.90;76.80;;;;;;5092628;28;20046;-40
2022/03/06 07:37:42;;;;;;;15.30;10.23;;;1.00;77.00;;;;;;5074308;28;20030;-39
2022/03/06 07:40:12;;;;;;;17.45;10.93;;;1.00;77.20;;;;;;5092475;28;20085;-39
2022/03/06 07:42:37;;;;;;;14.48;9.90;;;1.10;77.20;;;;;;5092647;28;20488;-38
2022/03/06 07:45:04;;;;;;;17.88;10.60;;;1.10;77.30;;;;;;5092487;28;20103;-39
2022/03/06 07:47:30;;;;;;;14.35;9.65;;;1.10;77.20;;;;;;5092842;28;20016;-39
2022/03/06 07:49:55;;;;;;;14.45;10.05;;;1.20;77.20;;;;;;5092844;28;20024;-38
2022/03/06 07:52:21;;;;;;;15.48;10.30;;;1.20;77.60;;;;;;5074389;28;20071;-38
2022/03/06 07:54:47;;;;;;;14.77;10.38;;;1.20;78.40;;;;;;5092265;28;20048;-37
2022/03/06 07:57:12;;;;;;;16.95;11.00;;;1.20;77.60;;;;;;5092401;28;20100;-39
2022/03/06 07:59:38;;;;;;;16.95;11.07;;;1.20;78.20;;;;;;5092368;28;20107;-39
2022/03/06 08:02:04;;;;;;;16.45;10.77;;;1.20;78.10;;;;;;5092294;28;20035;-39
2022/03/06 08:04:29;;;;;;;17.65;10.90;;;1.30;78.70;;;;;;5074323;28;20417;-38
2022/03/06 08:06:55;;;;;;;17.55;9.98;;;1.30;78.50;;;;;;5094399;28;20020;-40
2022/03/06 08:09:21;;;;;;;16.25;10.27;;;1.30;78.40;;;;;;5096275;28;20027;-37
2022/03/06 08:11:46;;;;;;;15.35;9.77;;;1.30;78.50;;;;;;5096165;28;20503;-39
2022/03/06 08:14:12;;;;;;;14.60;9.73;;;1.30;78.20;;;;;;5096173;28;20035;-39
2022/03/06 08:16:38;;;;;;;12.50;8.77;;;1.40;78.20;;;;;;5096364;28;20074;-39
2022/03/06 08:19:05;;;;;;;14.88;8.93;;;1.50;78.40;;;;;;5078078;28;20031;-38
2022/03/06 08:21:31;;;;;;;14.40;9.30;;;1.50;78.40;;;;;;5095900;28;20028;-39
2022/03/06 08:23:56;;;;;;;13.57;8.40;;;1.50;77.90;;;;;;5096086;28;20016;-38
2022/03/06 08:26:25;;;;;;;16.45;9.13;;;1.60;77.70;;;;;;5096164;28;20026;-39
2022/03/06 08:28:53;;;;;;;14.00;8.10;;;1.70;77.80;;;;;;5096011;28;20603;-39
2022/03/06 08:31:19;;;;;;;12.25;7.78;;;1.70;77.60;;;;;;5095626;28;20027;-39
2022/03/06 08:33:45;;;;;;;14.02;9.90;;;1.90;77.40;;;;;;5077659;28;20024;-38
2022/03/06 08:36:11;;;;;;;12.98;8.68;;;2.00;77.60;;;;;;5095737;28;20364;-38
2022/03/06 08:38:36;;;;;;;12.75;7.90;;;2.10;77.60;;;;;;5095630;28;20434;-39
2022/03/06 08:41:02;;;;;;;12.13;7.35;;;2.20;77.30;;;;;;5095401;28;20024;-38
2022/03/06 08:43:28;;;;;;;11.85;7.35;;;2.30;77.10;;;;;;5095717;28;20368;-38
2022/03/06 08:45:53;;;;;;;11.38;7.65;;;2.30;76.60;;;;;;5095354;28;20050;-38
2022/03/06 08:48:21;;;;;;;12.27;7.80;;;2.40;76.40;;;;;;5095392;28;20464;-39
2022/03/06 08:50:49;;;;;;;10.50;7.00;;;2.50;76.30;;;;;;5095615;28;20091;-39
2022/03/06 08:53:16;;;;;;;9.85;6.80;;;2.50;76.10;;;;;;5095343;28;20119;-37
2022/03/06 08:55:42;;;;;;;10.68;6.97;;;2.60;76.10;;;;;;5095121;28;20036;-39
2022/03/06 08:58:08;;;;;;;8.80;6.38;;;2.70;75.80;;;;;;5095571;28;20025;-38
2022/03/06 09:00:33;;;;;;;10.30;7.03;;;2.70;75.70;;;;;;5095153;28;20012;-38
2022/03/06 09:02:59;;;;;;;10.13;6.45;;;2.80;75.50;;;;;;5095220;28;20024;-40
2022/03/06 09:05:24;;;;;;;8.98;5.88;;;2.80;75.40;;;;;;5095188;28;20024;-39
2022/03/06 09:07:50;;;;;;;9.52;6.10;;;2.90;75.30;;;;;;5095131;28;20032;-40
2022/03/06 09:10:15;;;;;;;9.55;5.65;;;3.00;75.30;;;;;;5095185;28;20556;-38
2022/03/06 09:12:41;;;;;;;8.07;5.88;;;3.10;74.80;;;;;;5095017;28;20417;-39
2022/03/06 09:15:08;;;;;;;9.52;6.53;;;3.10;74.40;;;;;;5094946;28;20017;-39
2022/03/06 09:17:33;;;;;;;13.23;6.63;;;3.10;74.00;;;;;;5094376;28;20109;-37
2022/03/06 09:19:59;;;;;;;9.38;5.90;;;3.10;74.30;;;;;;5094701;28;20020;-39
2022/03/06 09:22:24;;;;;;;8.25;6.05;;;3.10;73.90;;;;;;5094882;28;20158;-39
2022/03/06 09:24:50;;;;;;;10.75;6.00;;;3.20;73.90;;;;;;5076557;28;20019;-48
2022/03/06 09:27:16;;;;;;;8.30;5.38;;;3.30;73.70;;;;;;5094580;28;20430;-43
2022/03/06 09:29:41;;;;;;;11.30;5.70;;;3.40;73.50;;;;;;5094673;28;20066;-39
2022/03/06 09:32:07;;;;;;;10.27;5.88;;;3.40;73.30;;;;;;5094233;28;20119;-37
2022/03/06 09:34:33;;;;;;;10.98;5.85;;;3.40;73.10;;;;;;5094143;28;20023;-37
2022/03/06 09:36:58;;;;;;;9.18;5.18;;;3.50;72.80;;;;;;5076041;28;20084;-38
2022/03/06 09:39:24;;;;;;;10.65;5.70;;;3.60;72.90;;;;;;5094159;28;20024;-40
2022/03/06 09:41:54;;;;;;;9.82;5.88;;;3.70;72.30;;;;;;5093976;28;20032;-38
2022/03/06 09:44:24;;;;;;;8.00;5.68;;;3.70;71.80;;;;;;5094021;28;20020;-39
2022/03/06 09:46:52;;;;;;;7.03;4.95;;;3.80;71.60;;;;;;5093892;28;20387;-39
2022/03/06 09:49:18;;;;;;;7.78;4.40;;;3.80;71.60;;;;;;5094229;28;20024;-38
2022/03/06 09:51:44;;;;;;;5.55;3.97;;;3.90;71.70;;;;;;5093713;28;20051;-37
2022/03/06 09:54:12;;;;;;;8.13;4.72;;;4.00;71.90;;;;;;5093542;28;20040;-37
2022/03/06 09:56:39;;;;;;;7.97;4.20;;;4.20;71.00;;;;;;5093768;28;20034;-37
2022/03/06 09:59:05;;;;;;;7.93;5.40;;;4.30;71.70;;;;;;5093794;28;20030;-38
2022/03/06 10:01:31;;;;;;;7.80;4.50;;;4.40;71.00;;;;;;5093640;28;20107;-38
2022/03/06 10:03:57;;;;;;;7.35;5.60;;;4.50;70.60;;;;;;5075593;28;20035;-39
2022/03/06 10:06:23;;;;;;;7.78;4.60;;;4.50;70.10;;;;;;5093852;28;20023;-39
2022/03/06 10:09:03;;;;;;;9.32;5.10;;;4.60;69.30;;;;;;5093796;28;20017;-40
2022/03/06 10:11:29;;;;;;;7.20;4.43;;;4.70;69.00;;;;;;5093483;28;20438;-43
2022/03/06 10:13:54;;;;;;;8.05;4.85;;;4.80;69.20;;;;;;5093391;28;20028;-38
2022/03/06 10:16:21;;;;;;;8.48;5.18;;;4.90;68.00;;;;;;5093556;28;20056;-39
2022/03/06 10:18:52;;;;;;;7.88;5.05;;;4.90;68.00;;;;;;5093354;28;20364;-39
2022/03/06 10:21:22;;;;;;;8.52;4.72;;;5.00;67.20;;;;;;5093309;28;20139;-38
2022/03/06 10:23:54;;;;;;;6.15;4.47;;;5.10;67.90;;;;;;5093272;28;20032;-39
2022/03/06 10:26:22;;;;;;;5.32;4.07;;;5.20;67.50;;;;;;5093396;28;20023;-39
2022/03/06 10:28:52;;;;;;;5.20;4.35;;;5.30;67.50;;;;;;5092371;28;20107;-39
2022/03/06 10:31:20;;;;;;;6.85;4.78;;;5.40;66.90;;;;;;5093488;28;20024;-38
2022/03/06 10:33:55;;;;;;;7.45;5.07;;;5.60;66.60;;;;;;5093004;28;20024;-39
2022/03/06 10:36:47;;;;;;;6.20;4.70;;;5.70;66.10;;;;;;5093314;28;20073;-39
2022/03/06 10:39:18;;;;;;;6.95;4.55;;;5.70;63.70;;;;;;5093350;28;20431;-38
2022/03/06 10:41:47;;;;;;;7.60;4.80;;;5.70;64.10;;;;;;5093437;28;20541;-40
2022/03/06 10:44:14;;;;;;;7.60;4.70;;;5.60;63.40;;;;;;5093524;28;20356;-39
2022/03/06 10:46:41;;;;;;;5.53;4.40;;;5.70;64.20;;;;;;5093100;28;20101;-40
2022/03/06 10:49:12;;;;;;;6.82;4.20;;;5.70;64.40;;;;;;5093363;28;20490;-37
2022/03/06 10:51:40;;;;;;;5.80;4.15;;;5.80;63.50;;;;;;5093117;28;20093;-38
2022/03/06 10:54:06;;;;;;;6.60;3.97;;;5.90;63.80;;;;;;5093270;28;20515;-39
2022/03/06 10:56:32;;;;;;;7.60;4.45;;;6.00;63.70;;;;;;5093100;28;20488;-38
2022/03/06 10:58:58;;;;;;;6.60;4.40;;;6.10;63.50;;;;;;5093098;28;20031;-40
2022/03/06 11:01:23;;;;;;;6.22;4.60;;;6.20;62.50;;;;;;5092892;28;20048;-39
2022/03/06 11:03:51;;;;;;;4.80;4.00;;;6.20;62.10;;;;;;5093351;28;20097;-40
2022/03/06 11:06:19;;;;;;;6.22;4.30;;;6.30;62.70;;;;;;5093064;28;20016;-38
2022/03/06 11:08:46;;;;;;;7.32;4.85;;;6.40;61.90;;;;;;5074871;28;20429;-38
2022/03/06 11:11:12;;;;;;;5.85;4.18;;;6.50;61.00;;;;;;5092724;28;20452;-38
2022/03/06 11:13:39;;;;;;;7.57;4.80;;;6.50;60.80;;;;;;5092551;28;20039;-37
2022/03/06 11:16:05;;;;;;;6.90;5.10;;;6.40;58.70;;;;;;5092924;28;20103;-38
2022/03/06 11:18:33;;;;;;;5.95;4.85;;;6.40;58.10;;;;;;5074554;28;20079;-38
2022/03/06 11:21:01;;;;;;;6.65;5.10;;;6.40;58.10;;;;;;5092989;28;20038;-39
2022/03/06 11:23:46;;;;;;;6.07;4.55;;;6.40;57.20;;;;;;5092892;28;20028;-39
2022/03/06 11:26:15;;;;;;;5.22;3.97;;;6.40;57.50;;;;;;5093181;28;20039;-38
2022/03/06 11:29:04;;;;;;;4.47;3.42;;;6.40;59.10;;;;;;5093178;28;20055;-38
2022/03/06 11:31:50;;;;;;;6.45;4.15;;;6.50;60.20;;;;;;5092871;28;20060;-37
2022/03/06 11:34:27;;;;;;;6.18;4.35;;;6.60;59.70;;;;;;5092890;28;20027;-38
2022/03/06 11:36:54;;;;;;;4.72;3.60;;;6.60;62.00;;;;;;5092788;28;20028;-39
2022/03/06 11:39:29;;;;;;;6.07;3.45;;;6.70;61.90;;;;;;5093000;28;20432;-39
2022/03/06 11:41:55;;;;;;;4.55;3.70;;;6.80;61.30;;;;;;5096393;28;20484;-39
2022/03/06 11:44:39;;;;;;;7.60;4.80;;;6.80;58.80;;;;;;5096712;28;20027;-37
2022/03/06 11:47:18;;;;;;;5.90;4.80;;;6.80;57.70;;;;;;5096729;28;20020;-43
2022/03/06 11:49:55;;;;;;;6.38;4.28;;;6.80;58.30;;;;;;5096518;28;20091;-37
2022/03/06 11:52:41;;;;;;;5.70;4.40;;;6.80;58.70;;;;;;5096518;28;20028;-39
2022/03/06 11:55:32;;;;;;;5.63;4.22;;;6.80;58.00;;;;;;5096204;28;20047;-38
2022/03/06 11:57:58;;;;;;;5.55;4.28;;;6.90;57.10;;;;;;5096477;28;20024;-37
2022/03/06 12:00:30;;;;;;;6.50;4.80;;;6.90;57.00;;;;;;5096190;28;20495;-37
2022/03/06 12:03:01;;;;;;;6.97;4.95;;;6.90;55.50;;;;;;5096562;28;20024;-39
2022/03/06 12:05:52;;;;;;;9.70;4.97;;;6.90;56.40;;;;;;5096190;28;20027;-39
2022/03/06 12:08:18;;;;;;;6.38;5.35;;;7.00;55.80;;;;;;5096508;28;20028;-39
2022/03/06 12:10:44;;;;;;;9.43;5.28;;;6.90;53.20;;;;;;5096219;28;20028;-41
2022/03/06 12:13:20;;;;;;;7.68;5.35;;;6.80;53.90;;;;;;5096456;28;20023;-38
2022/03/06 12:16:08;;;;;;;6.53;4.57;;;6.80;55.00;;;;;;5095894;28;20071;-39
2022/03/06 12:18:35;;;;;;;7.05;4.40;;;6.80;55.20;;;;;;5096239;28;20095;-37
2022/03/06 12:21:16;;;;;;;5.03;3.58;;;6.80;55.70;;;;;;5095862;28;20443;-39
2022/03/06 12:23:42;;;;;;;5.93;3.95;;;7.00;56.50;;;;;;5095805;28;20035;-39
2022/03/06 12:26:08;;;;;;;6.70;4.65;;;7.10;57.30;;;;;;5096141;28;20028;-39
2022/03/06 12:28:39;;;;;;;5.80;4.40;;;7.20;55.70;;;;;;5095986;28;20027;-39
2022/03/06 12:31:30;;;;;;;8.00;5.10;;;7.30;54.90;;;;;;5095990;28;20031;-39
2022/03/06 12:33:55;;;;;;;7.43;5.45;;;7.20;53.40;;;;;;5084151;28;20043;-39
2022/03/06 12:36:24;;;;;;;6.25;4.57;;;7.20;53.70;;;;;;5095731;28;20379;-39
2022/03/06 12:38:58;;;;;;;7.72;5.45;;;7.10;53.40;;;;;;5095662;28;20494;-39
2022/03/06 12:41:25;;;;;;;7.45;4.93;;;7.10;52.90;;;;;;5095580;28;20501;-39
2022/03/06 12:44:04;;;;;;;7.28;5.03;;;7.20;53.30;;;;;;5095426;28;20020;-39
2022/03/06 12:46:30;;;;;;;7.18;4.82;;;7.30;52.50;;;;;;5095410;28;20099;-39